Time;durP1;ratioP1;P1;durP2;ratioP2;P2;SDS_P1;SDS_P2;PMS_P1;PMS_P2;Temp;Humidity;BMP_temperature;BMP_pressure;BME280_temperature;BME280_humidity;BME280_pressure;Samples;Min_cycle;Max_cycle;Signal;HPM_P1;HPM_P2
2021/05/18 00:00:37;;;;;;;24.08;8.43;;;11.90;98.50;;;;;;4954183;28;20110;-82
2021/05/18 00:03:04;;;;;;;25.48;8.98;;;12.00;98.50;;;;;;4954109;28;20063;-80
2021/05/18 00:05:30;;;;;;;22.75;7.65;;;11.90;98.40;;;;;;4968495;28;20023;-81
2021/05/18 00:08:02;;;;;;;28.30;8.50;;;11.90;98.40;;;;;;4954078;29;20020;-81
2021/05/18 00:13:18;;;;;;;27.83;9.13;;;12.00;98.30;;;;;;4953594;29;20090;-81
2021/05/18 00:15:45;;;;;;;32.47;8.90;;;11.90;98.60;;;;;;4953909;28;20039;-80
2021/05/18 00:18:11;;;;;;;28.02;8.73;;;11.90;98.30;;;;;;4969493;28;20440;-79
2021/05/18 00:20:39;;;;;;;26.30;9.23;;;11.90;98.20;;;;;;4955265;28;20479;-80
2021/05/18 00:23:08;;;;;;;43.55;10.52;;;11.90;98.20;;;;;;4953700;28;20027;-81
2021/05/18 00:25:34;;;;;;;32.30;9.23;;;11.80;98.20;;;;;;4953855;28;20031;-81
2021/05/18 00:28:00;;;;;;;39.83;9.52;;;11.80;98.10;;;;;;4968825;28;20023;-82
2021/05/18 00:30:26;;;;;;;28.20;8.80;;;11.80;98.10;;;;;;4952832;28;20103;-81
2021/05/18 00:32:51;;;;;;;25.83;8.20;;;11.80;98.10;;;;;;4968480;28;20118;-80
2021/05/18 00:35:18;;;;;;;28.35;9.57;;;11.80;98.10;;;;;;4967845;28;20035;-81
2021/05/18 00:37:44;;;;;;;25.45;9.27;;;11.80;98.10;;;;;;4968652;28;20126;-81
2021/05/18 00:40:13;;;;;;;25.88;9.82;;;11.80;98.10;;;;;;4968029;28;20487;-80
2021/05/18 00:43:05;;;;;;;31.55;9.23;;;11.80;98.10;;;;;;4968633;28;20027;-80
2021/05/18 00:45:42;;;;;;;28.27;9.43;;;11.80;98.00;;;;;;4965119;28;20059;-81
2021/05/18 00:48:09;;;;;;;23.10;9.15;;;11.80;98.10;;;;;;4968377;28;20059;-80
2021/05/18 00:50:37;;;;;;;28.55;9.77;;;11.80;98.10;;;;;;4953793;28;20039;-81
2021/05/18 00:53:04;;;;;;;28.00;9.20;;;11.80;98.10;;;;;;4952817;28;20082;-80
2021/05/18 01:00:42;;;;;;;28.20;9.88;;;11.90;98.10;;;;;;4959435;29;20034;-78
2021/05/18 01:03:09;;;;;;;30.63;9.65;;;11.90;98.10;;;;;;4973498;28;20114;-81
2021/05/18 01:08:19;;;;;;;30.13;9.30;;;11.90;98.00;;;;;;4958578;29;20502;-78
2021/05/18 01:10:46;;;;;;;28.98;9.80;;;11.90;98.00;;;;;;4959434;28;20027;-80
2021/05/18 01:13:12;;;;;;;28.95;9.82;;;11.90;98.00;;;;;;4957112;28;20097;-81
2021/05/18 01:15:39;;;;;;;33.15;10.98;;;11.90;98.00;;;;;;4957164;28;20076;-80
2021/05/18 01:18:08;;;;;;;28.60;10.73;;;12.00;98.00;;;;;;4957271;28;20056;-79
2021/05/18 01:20:42;;;;;;;24.65;9.95;;;12.00;98.00;;;;;;4956870;28;20019;-79
2021/05/18 01:23:08;;;;;;;29.90;10.70;;;12.00;98.00;;;;;;4957275;28;20106;-81
2021/05/18 01:25:33;;;;;;;25.20;9.73;;;12.00;98.00;;;;;;4954954;29;20062;-81
2021/05/18 01:27:59;;;;;;;30.88;9.73;;;12.00;98.00;;;;;;4957107;28;20444;-80
2021/05/18 01:30:25;;;;;;;30.60;8.98;;;12.00;98.00;;;;;;4954993;29;20031;-80
2021/05/18 01:32:51;;;;;;;26.17;10.95;;;12.00;98.00;;;;;;4956582;28;20407;-80
2021/05/18 01:35:17;;;;;;;27.42;9.20;;;12.00;98.00;;;;;;4954789;29;20126;-80
2021/05/18 01:37:43;;;;;;;26.05;9.07;;;12.00;98.00;;;;;;4956941;28;20163;-81
2021/05/18 01:43:13;;;;;;;32.58;8.80;;;12.00;97.90;;;;;;4956757;28;20509;-80
2021/05/18 01:45:32;;;;;;;22.80;8.32;;;12.00;97.90;;;;;;4953934;28;20410;-81
2021/05/18 01:48:05;;;;;;;22.20;8.63;;;12.00;97.90;;;;;;4957076;28;20062;-80
2021/05/18 01:50:31;;;;;;;25.05;8.70;;;12.10;97.80;;;;;;4971379;28;20229;-82
2021/05/18 01:52:57;;;;;;;24.15;9.98;;;12.10;97.80;;;;;;4955578;29;20151;-81
2021/05/18 01:55:27;;;;;;;26.05;9.63;;;12.10;97.80;;;;;;4955099;29;20039;-81
2021/05/18 01:57:53;;;;;;;29.42;9.13;;;12.10;97.80;;;;;;4956990;28;20075;-81
2021/05/18 02:00:22;;;;;;;31.77;10.23;;;12.10;98.10;;;;;;4956105;28;20027;-81
2021/05/18 02:02:48;;;;;;;29.27;11.73;;;12.10;97.80;;;;;;4955449;29;20026;-81
2021/05/18 02:05:17;;;;;;;33.75;11.38;;;12.20;97.90;;;;;;4947606;28;20036;-82
2021/05/18 02:07:45;;;;;;;33.80;11.15;;;12.20;97.90;;;;;;4936376;29;20034;-80
2021/05/18 02:10:17;;;;;;;32.70;10.35;;;12.20;97.90;;;;;;4937755;29;20106;-80
2021/05/18 02:12:43;;;;;;;28.23;10.32;;;12.20;97.80;;;;;;4936293;29;20074;-80
2021/05/18 02:21:03;;;;;;;26.77;10.90;;;12.20;97.70;;;;;;4937190;29;20035;-81
2021/05/18 02:26:14;;;;;;;26.15;9.07;;;12.20;97.80;;;;;;4936767;29;20330;-80
2021/05/18 02:28:40;;;;;;;22.17;8.85;;;12.30;97.80;;;;;;4936956;29;20387;-81
2021/05/18 02:31:05;;;;;;;23.85;9.93;;;12.30;97.80;;;;;;4952149;29;20038;-80
2021/05/18 02:33:31;;;;;;;25.17;9.45;;;12.30;97.80;;;;;;4936166;29;20476;-80
2021/05/18 02:35:57;;;;;;;29.73;10.63;;;12.30;97.80;;;;;;4936940;29;20043;-81
2021/05/18 02:38:22;;;;;;;29.67;10.85;;;12.30;97.80;;;;;;4935101;29;20055;-81
2021/05/18 02:40:48;;;;;;;28.83;10.43;;;12.30;97.80;;;;;;4935657;29;20134;-80
2021/05/18 02:43:20;;;;;;;28.52;9.60;;;12.30;97.70;;;;;;4935666;29;20411;-80
2021/05/18 02:46:14;;;;;;;27.02;9.30;;;12.30;97.70;;;;;;4951021;29;20052;-80
2021/05/18 02:51:24;;;;;;;26.27;10.13;;;12.30;97.70;;;;;;4936228;29;20118;-81
2021/05/18 02:53:50;;;;;;;25.30;9.85;;;12.30;97.70;;;;;;4936849;29;20050;-80
2021/05/18 02:58:52;;;;;;;23.05;9.50;;;12.40;97.70;;;;;;4936930;29;20036;-80
2021/05/18 03:01:18;;;;;;;23.48;9.40;;;12.40;97.70;;;;;;4936731;29;20483;-80
2021/05/18 03:03:44;;;;;;;22.05;10.50;;;12.40;97.70;;;;;;4955803;29;20028;-80
2021/05/18 03:06:09;;;;;;;24.27;10.23;;;12.40;97.70;;;;;;4955278;29;20110;-80
2021/05/18 03:08:38;;;;;;;27.35;10.13;;;12.40;97.70;;;;;;4954967;29;20058;-81
2021/05/18 03:11:07;;;;;;;28.25;9.75;;;12.40;97.70;;;;;;4955807;29;20023;-80
2021/05/18 03:13:32;;;;;;;31.45;9.70;;;12.40;97.70;;;;;;4954996;29;20521;-80
2021/05/18 03:16:00;;;;;;;23.02;9.73;;;12.40;97.70;;;;;;4953592;28;20126;-80
2021/05/18 03:18:26;;;;;;;27.52;9.20;;;12.40;97.70;;;;;;4953575;29;20122;-79
2021/05/18 03:20:52;;;;;;;27.85;10.25;;;12.40;97.70;;;;;;4955411;29;20431;-80
2021/05/18 03:23:18;;;;;;;24.42;9.85;;;12.40;97.90;;;;;;4955497;29;20027;-81
2021/05/18 03:25:43;;;;;;;33.20;11.07;;;12.40;97.70;;;;;;4955218;29;20027;-80
2021/05/18 03:28:09;;;;;;;30.75;10.27;;;12.40;97.60;;;;;;4953924;29;20394;-81
2021/05/18 03:31:12;;;;;;;34.95;10.15;;;12.50;97.70;;;;;;4954596;29;20459;-81
2021/05/18 03:36:05;;;;;;;31.25;10.88;;;12.50;97.70;;;;;;4955159;29;20077;-80
2021/05/18 03:38:46;;;;;;;29.05;10.48;;;12.50;97.70;;;;;;4955459;29;20467;-80
2021/05/18 03:41:18;;;;;;;24.63;9.60;;;12.50;97.70;;;;;;4955305;29;20023;-80
2021/05/18 03:43:56;;;;;;;;;;;12.50;97.70;;;;;;4953221;29;20052;-81
2021/05/18 04:02:45;;;;;;;34.05;13.70;;;12.50;97.70;;;;;;4934909;29;20507;-78
2021/05/18 04:18:29;;;;;;;37.65;11.77;;;12.50;97.80;;;;;;4935222;29;20047;-78
2021/05/18 04:21:05;;;;;;;30.50;12.77;;;12.50;97.80;;;;;;4935184;29;20028;-79
2021/05/18 05:02:19;;;;;;;35.83;14.68;;;12.60;97.80;;;;;;4924918;29;20040;-75
2021/05/18 05:07:04;;;;;;;41.03;15.43;;;12.60;97.80;;;;;;4934551;29;20491;-75
2021/05/18 05:09:33;;;;;;;47.33;16.45;;;12.60;97.80;;;;;;4933919;29;20019;-73
2021/05/18 05:14:43;;;;;;;50.22;15.10;;;12.40;97.70;;;;;;4933909;29;20058;-74
2021/05/18 05:17:09;;;;;;;62.30;17.75;;;12.30;97.90;;;;;;4933195;29;20163;-74
2021/05/18 05:19:35;;;;;;;58.53;19.40;;;12.30;98.00;;;;;;4932536;29;20035;-73
2021/05/18 05:22:02;;;;;;;51.50;16.25;;;12.30;98.00;;;;;;4934001;29;20031;-74
2021/05/18 05:24:28;;;;;;;48.20;17.00;;;12.30;98.00;;;;;;4932584;29;20035;-74
2021/05/18 05:26:54;;;;;;;58.65;17.50;;;12.30;97.90;;;;;;4934515;29;20332;-74
2021/05/18 05:29:21;;;;;;;49.22;15.75;;;12.30;97.90;;;;;;4934205;29;20019;-74
2021/05/18 05:31:48;;;;;;;49.58;13.75;;;12.30;97.90;;;;;;4932484;29;20214;-74
2021/05/18 05:34:15;;;;;;;52.15;16.17;;;12.30;98.00;;;;;;4934455;29;20479;-73
2021/05/18 05:36:41;;;;;;;47.78;14.77;;;12.20;97.90;;;;;;4933605;29;20452;-75
2021/05/18 05:39:11;;;;;;;53.47;15.77;;;12.20;98.00;;;;;;4932921;29;20019;-74
2021/05/18 05:41:37;;;;;;;48.55;16.38;;;12.10;98.00;;;;;;4936446;29;20027;-76
2021/05/18 05:44:04;;;;;;;48.95;14.95;;;12.20;98.10;;;;;;4937558;29;20139;-74
2021/05/18 05:46:31;;;;;;;55.03;15.73;;;12.20;98.20;;;;;;4935920;29;20384;-75
2021/05/18 05:48:57;;;;;;;55.50;15.90;;;12.20;98.20;;;;;;4937749;29;20106;-75
2021/05/18 05:51:25;;;;;;;56.20;16.60;;;12.20;98.10;;;;;;4937386;29;20058;-74
2021/05/18 05:53:52;;;;;;;67.28;20.77;;;12.20;98.10;;;;;;4937044;29;20028;-74
2021/05/18 05:56:18;;;;;;;61.88;19.80;;;12.20;98.20;;;;;;4936270;29;20042;-75
2021/05/18 05:58:45;;;;;;;56.80;18.90;;;12.30;98.20;;;;;;4937010;29;20174;-75
2021/05/18 06:01:11;;;;;;;67.53;20.98;;;12.30;98.10;;;;;;4937494;29;20123;-75
2021/05/18 06:03:37;;;;;;;71.60;20.38;;;12.30;98.00;;;;;;4936882;29;20031;-74
2021/05/18 06:06:03;;;;;;;73.15;20.98;;;12.30;98.00;;;;;;4936049;29;20163;-74
2021/05/18 06:08:30;;;;;;;99.18;26.55;;;12.40;98.00;;;;;;4937375;29;20490;-74
2021/05/18 06:11:05;;;;;;;80.97;24.67;;;12.40;98.10;;;;;;4936867;29;20020;-75
2021/05/18 06:43:08;;;;;;;78.65;26.80;;;12.50;98.00;;;;;;4936186;29;20042;-75
2021/05/18 06:48:18;;;;;;;90.90;25.08;;;12.50;98.00;;;;;;4936566;29;20051;-74
2021/05/18 06:50:44;;;;;;;82.88;25.88;;;12.60;97.90;;;;;;4934362;29;20388;-73
2021/05/18 06:53:10;;;;;;;80.15;24.35;;;12.60;97.90;;;;;;4936150;29;20106;-74
2021/05/18 06:55:37;;;;;;;79.03;25.38;;;12.70;97.70;;;;;;4934697;29;20387;-75
2021/05/18 06:58:09;;;;;;;77.28;24.15;;;12.70;97.70;;;;;;4935339;29;20401;-75
2021/05/18 07:00:37;;;;;;;80.22;25.92;;;12.80;97.70;;;;;;4935972;29;20078;-74
2021/05/18 07:03:06;;;;;;;98.32;25.92;;;12.90;97.50;;;;;;4936486;29;20221;-75
2021/05/18 07:05:50;;;;;;;78.78;23.92;;;12.90;97.40;;;;;;4935052;29;20027;-75
2021/05/18 07:10:43;;;;;;;84.07;25.15;;;13.00;97.50;;;;;;4935746;29;20027;-73
2021/05/18 07:13:10;;;;;;;72.93;23.38;;;13.00;97.50;;;;;;4934944;29;20447;-74
2021/05/18 07:15:36;;;;;;;80.60;22.42;;;13.10;97.50;;;;;;4934750;29;20131;-74
2021/05/18 07:18:01;;;;;;;74.88;23.33;;;13.20;97.50;;;;;;4936126;29;20146;-75
2021/05/18 07:20:29;;;;;;;70.35;24.00;;;13.30;97.40;;;;;;4935901;29;20031;-75
2021/05/18 07:22:57;;;;;;;80.85;23.45;;;13.30;97.30;;;;;;4934100;29;20063;-74
2021/05/18 07:25:23;;;;;;;72.75;22.15;;;13.30;97.30;;;;;;4936056;29;20034;-75
2021/05/18 07:27:50;;;;;;;69.15;20.75;;;13.40;97.30;;;;;;4935338;29;20111;-74
2021/05/18 07:30:16;;;;;;;67.03;22.08;;;13.30;97.40;;;;;;4935678;29;20098;-75
2021/05/18 07:32:42;;;;;;;63.65;21.88;;;13.30;97.30;;;;;;4934081;29;20115;-74
2021/05/18 07:35:09;;;;;;;65.22;19.48;;;13.20;97.40;;;;;;4935843;29;20035;-74
2021/05/18 07:37:35;;;;;;;60.40;18.48;;;13.10;97.40;;;;;;4935871;29;20019;-75
2021/05/18 07:40:01;;;;;;;56.85;18.05;;;13.00;97.50;;;;;;4935103;29;20182;-73
2021/05/18 07:42:27;;;;;;;46.45;15.25;;;12.90;97.80;;;;;;4934364;29;20032;-73
2021/05/18 07:44:53;;;;;;;47.58;13.38;;;12.80;97.80;;;;;;4934997;29;20130;-73
2021/05/18 07:47:21;;;;;;;43.03;13.18;;;12.70;97.80;;;;;;4935657;29;20055;-74
2021/05/18 07:49:49;;;;;;;30.67;9.45;;;12.60;97.80;;;;;;4934933;29;20024;-74
2021/05/18 08:05:44;;;;;;;39.67;11.68;;;12.40;98.30;;;;;;4934833;29;19957;-75
2021/05/18 08:08:09;;;;;;;45.63;14.10;;;12.40;98.30;;;;;;4933970;29;20019;-75
2021/05/18 08:10:45;;;;;;;43.38;12.10;;;12.50;98.30;;;;;;4935508;29;20384;-75
2021/05/18 08:13:12;;;;;;;41.38;13.02;;;12.50;98.20;;;;;;4935238;29;20031;-75
2021/05/18 08:15:52;;;;;;;35.83;11.27;;;12.60;98.30;;;;;;4935143;29;20122;-76
2021/05/18 10:36:12;;;;;;;24.35;8.65;;;13.60;97.20;;;;;;4936438;29;20036;-76
2021/05/18 10:38:45;;;;;;;23.23;7.60;;;13.70;97.10;;;;;;4935981;29;20106;-76
2021/05/18 10:41:13;;;;;;;25.35;8.20;;;13.70;97.10;;;;;;4936257;29;20069;-75
2021/05/18 10:43:40;;;;;;;31.27;9.27;;;13.90;97.10;;;;;;4936568;29;20039;-76
2021/05/18 10:46:08;;;;;;;32.65;9.52;;;13.90;97.00;;;;;;4934591;29;20142;-76
2021/05/18 10:48:37;;;;;;;36.03;9.40;;;14.00;96.90;;;;;;4936624;29;20028;-76
2021/05/18 10:51:35;;;;;;;35.80;9.35;;;14.10;96.90;;;;;;4936071;29;20115;-76
2021/05/18 10:54:16;;;;;;;37.75;11.45;;;14.20;96.80;;;;;;4935869;29;20024;-76
2021/05/18 10:59:27;;;;;;;42.72;11.82;;;14.30;96.50;;;;;;4936609;29;20035;-76
2021/05/18 11:02:16;;;;;;;31.95;8.52;;;14.40;96.50;;;;;;4934582;29;20107;-76
2021/05/18 11:04:54;;;;;;;24.85;7.78;;;14.40;96.50;;;;;;4935110;29;20430;-76
2021/05/18 11:07:32;;;;;;;36.00;8.25;;;14.50;96.50;;;;;;4936682;29;20028;-76
2021/05/18 11:09:58;;;;;;;32.50;8.73;;;14.70;96.50;;;;;;4935715;29;20032;-76
2021/05/18 11:12:25;;;;;;;28.92;8.57;;;14.80;96.70;;;;;;4936380;29;20039;-75
2021/05/18 11:14:53;;;;;;;29.92;9.20;;;14.90;96.30;;;;;;4936086;29;20024;-76
2021/05/18 11:17:30;;;;;;;29.80;7.40;;;14.80;96.10;;;;;;4936047;29;20520;-76
2021/05/18 11:20:05;;;;;;;19.15;5.90;;;14.80;96.20;;;;;;4935433;29;20024;-76
2021/05/18 11:25:42;;;;;;;23.55;7.88;;;15.20;95.90;;;;;;4935900;29;20187;-75
2021/05/18 11:28:10;;;;;;;20.00;6.38;;;15.30;95.80;;;;;;4935088;29;20027;-75
2021/05/18 11:30:37;;;;;;;16.08;5.72;;;15.50;95.50;;;;;;4935808;29;20471;-75
2021/05/18 11:33:02;;;;;;;15.93;6.25;;;15.50;95.40;;;;;;4934020;29;20408;-75
2021/05/18 11:35:29;;;;;;;13.30;5.15;;;15.50;95.40;;;;;;4935915;29;20039;-75
2021/05/18 11:38:06;;;;;;;8.75;4.05;;;15.40;95.40;;;;;;4935780;29;20027;-75
2021/05/18 11:40:53;;;;;;;17.23;4.30;;;15.30;95.40;;;;;;4934611;29;20050;-76
2021/05/18 11:43:34;;;;;;;14.48;4.20;;;15.30;95.40;;;;;;4936207;29;20105;-74
2021/05/18 11:46:12;;;;;;;10.70;4.30;;;15.40;95.80;;;;;;4934947;29;20146;-75
2021/05/18 11:48:40;;;;;;;8.40;3.97;;;15.50;95.30;;;;;;4935885;29;20028;-76
2021/05/18 11:51:12;;;;;;;8.75;4.25;;;15.70;95.20;;;;;;4934739;29;20491;-75
2021/05/18 11:53:49;;;;;;;12.27;4.18;;;15.80;94.90;;;;;;4934221;29;20019;-75
2021/05/18 11:56:29;;;;;;;9.20;3.78;;;16.00;94.40;;;;;;4934669;29;20059;-74
2021/05/18 11:59:03;;;;;;;15.90;5.15;;;16.30;94.10;;;;;;4935437;29;20110;-76
2021/05/18 12:01:30;;;;;;;16.33;5.30;;;16.50;94.00;;;;;;4934105;29;20453;-76
2021/05/18 12:04:03;;;;;;;14.30;5.35;;;16.70;94.00;;;;;;4935544;29;20075;-75
2021/05/18 12:06:30;;;;;;;14.60;6.20;;;16.60;93.60;;;;;;4935482;29;20034;-75
2021/05/18 12:09:00;;;;;;;11.38;5.18;;;16.40;93.40;;;;;;4935311;29;20042;-74
2021/05/18 12:11:26;;;;;;;9.27;4.27;;;16.10;93.80;;;;;;4934316;29;20055;-74
2021/05/18 12:13:53;;;;;;;10.77;4.00;;;15.70;94.50;;;;;;4933841;29;20035;-75
2021/05/18 12:16:24;;;;;;;9.32;3.40;;;15.50;94.90;;;;;;4933185;29;20063;-74
2021/05/18 12:18:58;;;;;;;7.82;2.97;;;15.30;94.90;;;;;;4935362;29;20055;-75
2021/05/18 12:21:23;;;;;;;4.55;2.40;;;15.10;95.10;;;;;;4934735;29;20091;-75
2021/05/18 12:24:13;;;;;;;6.22;2.58;;;15.20;95.30;;;;;;4933937;29;20051;-75
2021/05/18 12:26:47;;;;;;;7.07;2.78;;;15.50;94.90;;;;;;4933719;29;20361;-75
2021/05/18 12:29:35;;;;;;;5.60;2.63;;;15.70;94.50;;;;;;4934290;29;20034;-75
2021/05/18 12:32:13;;;;;;;6.63;2.50;;;16.00;94.00;;;;;;4934476;29;20020;-74
2021/05/18 12:34:39;;;;;;;6.00;2.38;;;16.20;93.80;;;;;;4935039;29;20484;-74
2021/05/18 12:37:05;;;;;;;5.63;2.35;;;16.30;93.80;;;;;;4934117;29;20043;-75
2021/05/18 12:39:32;;;;;;;7.68;3.05;;;16.40;93.70;;;;;;4934794;29;20027;-76
2021/05/18 12:41:59;;;;;;;4.07;2.40;;;16.50;93.60;;;;;;4934654;29;20102;-75
2021/05/18 12:44:28;;;;;;;5.07;2.35;;;16.60;93.50;;;;;;4934754;29;20027;-75
2021/05/18 12:47:04;;;;;;;6.22;2.63;;;16.70;93.60;;;;;;4934779;29;20056;-75
2021/05/18 12:49:32;;;;;;;5.80;2.35;;;16.80;93.50;;;;;;4934414;29;20024;-74
2021/05/18 12:52:03;;;;;;;4.00;1.90;;;17.00;93.40;;;;;;4935055;29;20031;-76
2021/05/18 12:54:44;;;;;;;6.45;2.15;;;17.10;93.30;;;;;;4933584;29;20059;-74
2021/05/18 12:57:12;;;;;;;5.13;2.70;;;17.20;92.70;;;;;;4932910;29;20058;-75
2021/05/18 13:00:01;;;;;;;5.40;2.63;;;17.30;93.00;;;;;;4933482;29;20051;-76
2021/05/18 13:02:28;;;;;;;6.95;2.65;;;17.40;92.80;;;;;;4934688;29;20024;-75
2021/05/18 13:05:03;;;;;;;7.43;2.70;;;17.40;92.90;;;;;;4934718;29;20027;-76
2021/05/18 13:07:29;;;;;;;4.32;2.70;;;17.60;92.80;;;;;;4932925;29;20019;-75
2021/05/18 13:10:20;;;;;;;7.40;2.90;;;17.60;92.90;;;;;;4934343;29;20030;-75
2021/05/18 13:12:46;;;;;;;8.07;2.50;;;17.60;92.80;;;;;;4933314;29;20024;-75
2021/05/18 13:15:19;;;;;;;7.07;3.10;;;17.50;93.20;;;;;;4933816;29;20465;-75
2021/05/18 13:17:56;;;;;;;8.68;3.40;;;17.50;93.30;;;;;;4934469;29;20393;-75
2021/05/18 13:20:23;;;;;;;7.20;2.92;;;17.50;93.30;;;;;;4933920;29;20032;-74
2021/05/18 13:23:00;;;;;;;7.88;3.80;;;17.40;93.60;;;;;;4934407;29;20027;-76
2021/05/18 13:28:11;;;;;;;11.20;4.10;;;17.10;93.80;;;;;;4933670;29;20039;-74
2021/05/18 13:30:38;;;;;;;14.98;5.47;;;16.90;94.10;;;;;;4934417;29;20022;-75
2021/05/18 13:33:07;;;;;;;10.23;4.82;;;16.80;93.80;;;;;;4934177;29;20090;-75
2021/05/18 13:35:34;;;;;;;9.73;3.80;;;16.80;93.70;;;;;;4934237;29;20511;-75
2021/05/18 13:38:00;;;;;;;13.73;4.95;;;17.00;93.70;;;;;;4932997;29;20043;-76
2021/05/18 13:40:27;;;;;;;10.48;4.55;;;17.20;93.60;;;;;;4933616;29;20032;-75
2021/05/18 13:42:54;;;;;;;11.52;4.95;;;17.20;93.30;;;;;;4934015;29;20028;-74
2021/05/18 13:45:23;;;;;;;14.27;5.20;;;17.30;93.40;;;;;;4933668;29;20035;-74
2021/05/18 13:47:51;;;;;;;12.63;5.32;;;17.30;93.20;;;;;;4934168;29;20099;-74
2021/05/18 13:50:17;;;;;;;11.30;4.82;;;17.30;93.20;;;;;;4933318;29;20055;-74
2021/05/18 13:52:43;;;;;;;10.43;4.68;;;17.40;93.40;;;;;;4932908;29;20075;-75
2021/05/18 13:55:09;;;;;;;10.07;5.13;;;17.50;93.20;;;;;;4931899;29;20380;-75
2021/05/18 13:57:36;;;;;;;13.13;4.70;;;17.50;93.30;;;;;;4934006;29;20032;-75
2021/05/18 14:00:13;;;;;;;10.32;3.90;;;17.50;93.20;;;;;;4934137;29;20028;-75
2021/05/18 14:02:40;;;;;;;10.02;4.32;;;17.70;92.90;;;;;;4936462;29;20019;-74
2021/05/18 14:05:09;;;;;;;13.15;5.25;;;17.90;92.70;;;;;;4937153;29;20091;-75
2021/05/18 14:10:19;;;;;;;10.40;4.57;;;18.00;92.10;;;;;;4936448;29;20420;-75
2021/05/18 14:12:44;;;;;;;9.38;3.70;;;17.90;92.20;;;;;;4937171;29;20080;-74
2021/05/18 14:15:10;;;;;;;7.90;3.97;;;17.80;92.60;;;;;;4936182;29;20155;-75
2021/05/18 14:17:36;;;;;;;7.40;3.17;;;17.80;92.90;;;;;;4936959;29;20104;-75
2021/05/18 14:20:03;;;;;;;9.23;4.63;;;17.80;93.10;;;;;;4936917;29;20074;-75
2021/05/18 14:22:30;;;;;;;8.15;3.90;;;17.60;92.70;;;;;;4936541;29;20053;-75
2021/05/18 14:25:04;;;;;;;7.90;3.65;;;17.50;92.70;;;;;;4936991;29;20106;-74
2021/05/18 14:27:32;;;;;;;6.03;3.30;;;17.40;93.00;;;;;;4935138;29;20421;-75
2021/05/18 14:29:57;;;;;;;6.82;3.45;;;17.30;93.10;;;;;;4936965;29;20023;-75
2021/05/18 14:32:23;;;;;;;6.03;3.45;;;17.30;93.30;;;;;;4936610;29;20043;-74
2021/05/18 14:34:49;;;;;;;7.72;3.47;;;17.50;93.20;;;;;;4936645;29;20024;-74
2021/05/18 14:37:16;;;;;;;8.90;3.58;;;17.50;93.10;;;;;;4934913;29;20518;-75
2021/05/18 14:45:05;;;;;;;8.20;3.50;;;17.90;92.60;;;;;;4936632;29;20498;-74
2021/05/18 14:47:39;;;;;;;5.88;2.72;;;18.20;92.10;;;;;;4936057;29;20052;-75
2021/05/18 14:55:34;;;;;;;4.55;2.70;;;18.30;91.60;;;;;;4935650;29;20380;-75
2021/05/18 14:57:59;;;;;;;2.42;1.67;;;18.40;91.50;;;;;;4936224;29;20024;-75
2021/05/18 15:00:25;;;;;;;3.47;2.10;;;18.50;91.90;;;;;;4934519;29;20070;-74
2021/05/18 15:02:50;;;;;;;5.10;2.00;;;18.50;91.90;;;;;;4936562;29;20458;-75
2021/05/18 15:05:17;;;;;;;4.00;2.15;;;18.60;91.60;;;;;;4935484;29;20039;-73
2021/05/18 15:07:43;;;;;;;3.45;2.13;;;18.60;91.40;;;;;;4934689;29;20031;-74
2021/05/18 15:10:10;;;;;;;2.47;1.52;;;18.50;90.80;;;;;;4936284;29;20066;-75
2021/05/18 15:12:36;;;;;;;2.85;1.85;;;18.30;90.80;;;;;;4933930;29;20388;-75
2021/05/18 15:15:02;;;;;;;3.50;1.58;;;18.30;91.10;;;;;;4936079;29;20019;-75
2021/05/18 15:17:29;;;;;;;3.22;1.60;;;18.50;90.90;;;;;;4935260;29;20036;-74
2021/05/18 15:19:55;;;;;;;5.30;2.50;;;18.40;90.80;;;;;;4936213;29;20032;-74
2021/05/18 15:22:21;;;;;;;2.60;1.98;;;18.30;90.60;;;;;;4935459;29;20106;-75
2021/05/18 15:24:46;;;;;;;3.35;1.95;;;18.20;91.00;;;;;;4935955;29;20044;-75
2021/05/18 15:27:12;;;;;;;5.22;2.60;;;18.20;90.80;;;;;;4935538;29;20043;-74
2021/05/18 15:29:38;;;;;;;3.25;1.83;;;18.10;90.80;;;;;;4936113;29;20410;-75
2021/05/18 15:32:05;;;;;;;4.30;2.40;;;18.10;91.00;;;;;;4936015;29;20023;-75
2021/05/18 15:34:31;;;;;;;5.00;2.42;;;18.10;90.80;;;;;;4933953;29;20498;-75
2021/05/18 15:36:57;;;;;;;4.10;2.17;;;18.00;90.50;;;;;;4935829;29;20104;-74
2021/05/18 15:39:26;;;;;;;4.68;2.03;;;18.10;90.70;;;;;;4935217;29;20024;-75
2021/05/18 15:41:52;;;;;;;3.17;1.92;;;18.30;90.10;;;;;;4935834;29;20058;-75
2021/05/18 15:44:17;;;;;;;4.00;2.20;;;18.70;89.80;;;;;;4935051;29;20059;-74
2021/05/18 15:46:44;;;;;;;5.82;2.13;;;19.30;90.00;;;;;;4935304;29;20383;-75
2021/05/18 15:49:10;;;;;;;3.72;1.55;;;19.60;88.10;;;;;;4934213;29;20019;-74
2021/05/18 15:51:36;;;;;;;4.78;2.13;;;19.80;88.30;;;;;;4934473;29;20082;-75
2021/05/18 15:54:03;;;;;;;3.15;1.90;;;20.10;86.40;;;;;;4935575;29;20028;-75
2021/05/18 15:56:28;;;;;;;3.00;1.83;;;20.30;85.70;;;;;;4934971;29;20115;-74
2021/05/18 15:58:54;;;;;;;2.45;1.45;;;20.10;83.00;;;;;;4963248;28;20109;-73
2021/05/18 16:01:20;;;;;;;3.55;2.20;;;19.70;84.50;;;;;;4946459;29;20067;-75
2021/05/18 16:03:45;;;;;;;6.10;1.85;;;19.60;85.40;;;;;;4944606;29;20111;-74
2021/05/18 16:06:11;;;;;;;2.65;1.70;;;20.00;83.60;;;;;;4939016;29;20031;-75
2021/05/18 16:11:06;;;;;;;3.33;1.80;;;20.40;81.10;;;;;;4935073;29;20487;-75
2021/05/18 16:13:33;;;;;;;2.13;1.50;;;20.40;81.20;;;;;;4934596;29;20342;-74
2021/05/18 16:16:04;;;;;;;1.80;1.20;;;20.40;83.40;;;;;;4933724;29;20039;-75
2021/05/18 16:18:30;;;;;;;3.65;1.63;;;20.40;83.20;;;;;;4933281;29;20034;-75
2021/05/18 16:20:56;;;;;;;7.90;1.65;;;20.10;79.60;;;;;;4934805;29;20030;-74
2021/05/18 16:23:22;;;;;;;2.97;1.70;;;19.70;81.20;;;;;;4934153;29;20032;-74
2021/05/18 16:25:47;;;;;;;4.80;1.77;;;19.50;83.10;;;;;;4934275;29;20079;-74
2021/05/18 16:28:13;;;;;;;2.97;1.73;;;19.40;83.90;;;;;;4934753;29;20484;-74
2021/05/18 16:30:39;;;;;;;2.75;1.50;;;19.30;83.70;;;;;;4934344;29;20032;-74
2021/05/18 16:33:05;;;;;;;1.92;1.20;;;19.30;83.70;;;;;;4934563;29;20050;-74
2021/05/18 16:35:30;;;;;;;3.20;1.60;;;19.20;85.50;;;;;;4934179;29;20060;-75
2021/05/18 16:37:56;;;;;;;3.67;1.70;;;19.20;85.40;;;;;;4934781;29;20079;-74
2021/05/18 16:40:22;;;;;;;4.63;1.80;;;19.10;86.00;;;;;;4932813;29;20028;-74
2021/05/18 16:42:47;;;;;;;3.15;1.67;;;19.00;85.60;;;;;;4933378;29;20484;-74
2021/05/18 16:45:13;;;;;;;5.10;1.52;;;18.90;85.40;;;;;;4934658;29;20115;-74
2021/05/18 16:47:39;;;;;;;2.03;1.40;;;18.80;85.50;;;;;;4933644;29;20091;-74
2021/05/18 16:50:08;;;;;;;3.17;1.42;;;18.70;86.80;;;;;;4934707;29;20111;-74
2021/05/18 16:52:35;;;;;;;4.03;1.52;;;18.60;87.00;;;;;;4934137;29;20483;-74
2021/05/18 16:55:01;;;;;;;4.38;1.70;;;18.50;88.00;;;;;;4934604;29;20486;-75
2021/05/18 16:57:26;;;;;;;4.93;1.92;;;18.40;87.60;;;;;;4933983;29;20110;-75
2021/05/18 16:59:52;;;;;;;3.03;1.40;;;18.30;88.20;;;;;;4934602;29;20031;-74
2021/05/18 17:02:18;;;;;;;2.33;1.58;;;18.20;88.20;;;;;;4934540;29;20039;-74
2021/05/18 17:04:45;;;;;;;2.28;1.30;;;18.10;88.70;;;;;;4932604;29;20167;-75
2021/05/18 17:07:11;;;;;;;2.53;1.20;;;18.10;90.20;;;;;;4933149;29;20071;-74
2021/05/18 17:09:36;;;;;;;5.05;1.30;;;18.00;90.20;;;;;;4933937;29;20028;-74
2021/05/18 17:12:02;;;;;;;1.88;1.40;;;17.90;90.50;;;;;;4934737;29;20034;-74
2021/05/18 17:14:28;;;;;;;3.97;1.90;;;18.00;90.20;;;;;;4932589;29;20102;-74
2021/05/18 17:16:55;;;;;;;2.40;1.45;;;17.90;90.30;;;;;;4934588;29;20079;-74
2021/05/18 17:19:21;;;;;;;4.90;1.65;;;17.90;90.30;;;;;;4940628;29;20106;-74
2021/05/18 17:21:47;;;;;;;3.42;1.70;;;17.70;89.10;;;;;;4968375;28;20037;-74
2021/05/18 17:24:13;;;;;;;3.55;1.60;;;17.60;89.20;;;;;;4968386;28;20031;-74
2021/05/18 17:26:38;;;;;;;2.90;1.38;;;17.50;89.40;;;;;;4967787;28;20118;-74
2021/05/18 17:29:05;;;;;;;3.08;1.45;;;17.40;89.80;;;;;;4952742;29;20486;-75
2021/05/18 17:31:31;;;;;;;2.22;1.38;;;17.40;90.00;;;;;;4946606;28;20103;-74
2021/05/18 17:33:57;;;;;;;3.65;2.00;;;17.30;90.40;;;;;;4924719;28;20135;-80
2021/05/18 17:36:25;;;;;;;2.95;1.38;;;17.30;90.40;;;;;;4935952;29;20102;-81
2021/05/18 17:38:51;;;;;;;3.25;1.20;;;17.30;90.40;;;;;;4940449;29;20058;-80
2021/05/18 17:41:22;;;;;;;2.20;1.50;;;17.20;90.00;;;;;;4942420;29;20472;-80
2021/05/18 17:43:55;;;;;;;2.40;1.40;;;17.20;90.10;;;;;;4941920;29;20075;-81
2021/05/18 17:46:32;;;;;;;2.92;1.60;;;17.20;91.20;;;;;;4940439;29;20051;-80
2021/05/18 17:48:59;;;;;;;3.25;1.92;;;17.20;91.60;;;;;;4940091;29;20041;-79
2021/05/18 17:51:25;;;;;;;4.90;2.10;;;17.00;90.80;;;;;;4942493;29;20065;-79
2021/05/18 17:53:52;;;;;;;4.88;1.92;;;17.00;91.50;;;;;;4941221;29;20028;-80
2021/05/18 17:56:18;;;;;;;3.45;2.00;;;16.90;90.80;;;;;;4940765;29;20036;-80
2021/05/18 17:58:44;;;;;;;5.25;2.00;;;16.90;90.70;;;;;;4938239;29;20696;-82